sensor_id;sensor_type;location;lat;lon;timestamp;temperature;humidity
39371;DHT22;25099;51.946;4.838;2023-02-15T00:01:45;6.30;99.90
39371;DHT22;25099;51.946;4.838;2023-02-15T00:04:16;6.00;99.90
39371;DHT22;25099;51.946;4.838;2023-02-15T00:06:42;6.60;99.90
39371;DHT22;25099;51.946;4.838;2023-02-15T00:09:09;6.50;99.90
39371;DHT22;25099;51.946;4.838;2023-02-15T00:11:35;7.20;99.90
39371;DHT22;25099;51.946;4.838;2023-02-15T00:16:37;6.00;99.90
39371;DHT22;25099;51.946;4.838;2023-02-15T00:19:04;6.00;99.90
39371;DHT22;25099;51.946;4.838;2023-02-15T00:21:31;5.90;99.90
39371;DHT22;25099;51.946;4.838;2023-02-15T00:23:57;6.20;99.90
39371;DHT22;25099;51.946;4.838;2023-02-15T00:26:23;6.50;99.90
39371;DHT22;25099;51.946;4.838;2023-02-15T00:28:49;7.20;99.90
39371;DHT22;25099;51.946;4.838;2023-02-15T00:31:21;6.20;99.90
39371;DHT22;25099;51.946;4.838;2023-02-15T00:33:47;7.10;99.90
39371;DHT22;25099;51.946;4.838;2023-02-15T00:36:13;5.70;99.90
39371;DHT22;25099;51.946;4.838;2023-02-15T00:38:39;5.80;99.90
39371;DHT22;25099;51.946;4.838;2023-02-15T00:41:06;6.50;99.90
39371;DHT22;25099;51.946;4.838;2023-02-15T00:43:32;6.40;99.90
39371;DHT22;25099;51.946;4.838;2023-02-15T00:45:58;5.80;99.90
39371;DHT22;25099;51.946;4.838;2023-02-15T00:48:31;5.70;99.90
39371;DHT22;25099;51.946;4.838;2023-02-15T00:51:02;5.70;99.90
39371;DHT22;25099;51.946;4.838;2023-02-15T00:53:28;6.60;99.90
39371;DHT22;25099;51.946;4.838;2023-02-15T00:55:54;6.50;99.90
39371;DHT22;25099;51.946;4.838;2023-02-15T00:58:35;6.50;99.90
39371;DHT22;25099;51.946;4.838;2023-02-15T01:01:09;5.80;99.90
39371;DHT22;25099;51.946;4.838;2023-02-15T01:03:35;5.60;99.90
39371;DHT22;25099;51.946;4.838;2023-02-15T01:06:01;5.60;99.90
39371;DHT22;25099;51.946;4.838;2023-02-15T01:08:27;5.60;99.90
39371;DHT22;25099;51.946;4.838;2023-02-15T01:10:56;6.30;99.90
39371;DHT22;25099;51.946;4.838;2023-02-15T01:13:21;5.40;99.90
39371;DHT22;25099;51.946;4.838;2023-02-15T01:15:56;6.80;99.90
39371;DHT22;25099;51.946;4.838;2023-02-15T01:18:22;6.30;99.90
39371;DHT22;25099;51.946;4.838;2023-02-15T01:20:48;6.00;99.90
39371;DHT22;25099;51.946;4.838;2023-02-15T01:23:13;6.20;99.90
39371;DHT22;25099;51.946;4.838;2023-02-15T01:25:40;5.30;99.90
39371;DHT22;25099;51.946;4.838;2023-02-15T01:28:06;5.40;99.90
39371;DHT22;25099;51.946;4.838;2023-02-15T01:30:32;5.40;99.90
39371;DHT22;25099;51.946;4.838;2023-02-15T01:32:58;5.60;99.90
39371;DHT22;25099;51.946;4.838;2023-02-15T01:35:26;6.10;99.90
39371;DHT22;25099;51.946;4.838;2023-02-15T01:37:52;5.30;99.90
39371;DHT22;25099;51.946;4.838;2023-02-15T01:40:18;6.30;99.90
39371;DHT22;25099;51.946;4.838;2023-02-15T01:42:44;5.40;99.90
39371;DHT22;25099;51.946;4.838;2023-02-15T01:45:26;5.40;99.90
39371;DHT22;25099;51.946;4.838;2023-02-15T01:50:36;5.30;99.90
39371;DHT22;25099;51.946;4.838;2023-02-15T01:55:56;5.40;99.90
39371;DHT22;25099;51.946;4.838;2023-02-15T01:58:25;5.40;99.90
39371;DHT22;25099;51.946;4.838;2023-02-15T02:00:52;6.30;99.90
39371;DHT22;25099;51.946;4.838;2023-02-15T02:06:13;5.40;99.90
39371;DHT22;25099;51.946;4.838;2023-02-15T02:08:39;5.60;99.90
39371;DHT22;25099;51.946;4.838;2023-02-15T02:11:16;5.60;99.90
39371;DHT22;25099;51.946;4.838;2023-02-15T02:13:51;5.70;99.90
39371;DHT22;25099;51.946;4.838;2023-02-15T02:16:28;5.70;99.90
39371;DHT22;25099;51.946;4.838;2023-02-15T02:19:24;5.90;99.90
39371;DHT22;25099;51.946;4.838;2023-02-15T02:22:46;5.90;99.90
39371;DHT22;25099;51.946;4.838;2023-02-15T02:33:49;5.90;99.90
39371;DHT22;25099;51.946;4.838;2023-02-15T02:36:35;5.90;99.90
39371;DHT22;25099;51.946;4.838;2023-02-15T02:42:05;6.10;99.90
39371;DHT22;25099;51.946;4.838;2023-02-15T02:45:00;6.00;99.90
39371;DHT22;25099;51.946;4.838;2023-02-15T02:47:32;6.00;99.90
39371;DHT22;25099;51.946;4.838;2023-02-15T02:50:03;6.00;99.90
39371;DHT22;25099;51.946;4.838;2023-02-15T02:52:48;6.00;99.90
39371;DHT22;25099;51.946;4.838;2023-02-15T02:55:34;7.30;99.90
39371;DHT22;25099;51.946;4.838;2023-02-15T02:58:14;5.90;99.90
39371;DHT22;25099;51.946;4.838;2023-02-15T03:00:51;5.80;99.90
39371;DHT22;25099;51.946;4.838;2023-02-15T03:03:30;5.80;99.90
39371;DHT22;25099;51.946;4.838;2023-02-15T03:06:00;5.80;99.90
39371;DHT22;25099;51.946;4.838;2023-02-15T03:08:41;5.80;99.90
39371;DHT22;25099;51.946;4.838;2023-02-15T03:11:08;5.80;99.90
39371;DHT22;25099;51.946;4.838;2023-02-15T03:13:34;6.70;99.90
39371;DHT22;25099;51.946;4.838;2023-02-15T03:16:01;6.80;99.90
39371;DHT22;25099;51.946;4.838;2023-02-15T03:18:50;5.90;99.90
39371;DHT22;25099;51.946;4.838;2023-02-15T03:21:32;5.90;99.90
39371;DHT22;25099;51.946;4.838;2023-02-15T03:24:09;6.80;99.90
39371;DHT22;25099;51.946;4.838;2023-02-15T03:26:37;6.70;99.90
39371;DHT22;25099;51.946;4.838;2023-02-15T03:29:20;5.40;99.90
39371;DHT22;25099;51.946;4.838;2023-02-15T03:31:50;5.70;99.90
39371;DHT22;25099;51.946;4.838;2023-02-15T03:34:17;7.10;99.90
39371;DHT22;25099;51.946;4.838;2023-02-15T03:36:55;5.80;99.90
39371;DHT22;25099;51.946;4.838;2023-02-15T03:42:25;5.80;99.90
39371;DHT22;25099;51.946;4.838;2023-02-15T03:44:57;6.80;99.90
39371;DHT22;25099;51.946;4.838;2023-02-15T03:47:27;6.70;99.90
39371;DHT22;25099;51.946;4.838;2023-02-15T03:53:02;5.80;99.90
39371;DHT22;25099;51.946;4.838;2023-02-15T03:55:30;6.00;99.90
39371;DHT22;25099;51.946;4.838;2023-02-15T03:57:56;6.40;99.90
39371;DHT22;25099;51.946;4.838;2023-02-15T04:03:59;5.40;99.90
39371;DHT22;25099;51.946;4.838;2023-02-15T04:06:31;6.20;99.90
39371;DHT22;25099;51.946;4.838;2023-02-15T04:08:57;5.50;99.90
39371;DHT22;25099;51.946;4.838;2023-02-15T04:11:41;6.00;99.90
39371;DHT22;25099;51.946;4.838;2023-02-15T04:14:07;5.60;99.90
39371;DHT22;25099;51.946;4.838;2023-02-15T04:16:51;6.50;99.90
39371;DHT22;25099;51.946;4.838;2023-02-15T04:19:16;5.60;99.90
39371;DHT22;25099;51.946;4.838;2023-02-15T04:22:00;6.50;99.90
39371;DHT22;25099;51.946;4.838;2023-02-15T04:24:44;5.60;99.90
39371;DHT22;25099;51.946;4.838;2023-02-15T04:27:28;6.60;99.90
39371;DHT22;25099;51.946;4.838;2023-02-15T04:29:54;6.20;99.90
39371;DHT22;25099;51.946;4.838;2023-02-15T04:32:19;6.30;99.90
39371;DHT22;25099;51.946;4.838;2023-02-15T04:34:45;5.60;99.90
39371;DHT22;25099;51.946;4.838;2023-02-15T04:37:10;5.60;99.90
39371;DHT22;25099;51.946;4.838;2023-02-15T04:39:36;5.60;99.90
39371;DHT22;25099;51.946;4.838;2023-02-15T04:42:02;7.00;99.90
39371;DHT22;25099;51.946;4.838;2023-02-15T04:44:27;5.60;99.90
39371;DHT22;25099;51.946;4.838;2023-02-15T04:46:53;5.60;99.90
39371;DHT22;25099;51.946;4.838;2023-02-15T04:49:25;5.60;99.90
39371;DHT22;25099;51.946;4.838;2023-02-15T04:51:50;7.00;99.90
39371;DHT22;25099;51.946;4.838;2023-02-15T04:54:25;6.30;99.90
39371;DHT22;25099;51.946;4.838;2023-02-15T04:56:51;6.50;99.90
39371;DHT22;25099;51.946;4.838;2023-02-15T04:59:16;6.50;99.90
39371;DHT22;25099;51.946;4.838;2023-02-15T05:01:42;6.20;99.90
39371;DHT22;25099;51.946;4.838;2023-02-15T05:04:07;6.10;99.90
39371;DHT22;25099;51.946;4.838;2023-02-15T05:06:33;5.60;99.90
39371;DHT22;25099;51.946;4.838;2023-02-15T05:08:58;5.50;99.90
39371;DHT22;25099;51.946;4.838;2023-02-15T05:11:25;6.90;99.90
39371;DHT22;25099;51.946;4.838;2023-02-15T05:13:51;5.50;99.90
39371;DHT22;25099;51.946;4.838;2023-02-15T05:16:16;6.20;99.90
39371;DHT22;25099;51.946;4.838;2023-02-15T05:18:42;6.00;99.90
39371;DHT22;25099;51.946;4.838;2023-02-15T05:21:08;6.00;99.90
39371;DHT22;25099;51.946;4.838;2023-02-15T05:23:33;6.30;99.90
39371;DHT22;25099;51.946;4.838;2023-02-15T05:25:59;5.40;99.90
39371;DHT22;25099;51.946;4.838;2023-02-15T05:28:43;6.20;99.90
39371;DHT22;25099;51.946;4.838;2023-02-15T05:31:13;5.90;99.90
39371;DHT22;25099;51.946;4.838;2023-02-15T05:33:39;6.40;99.90
39371;DHT22;25099;51.946;4.838;2023-02-15T05:36:05;6.00;99.90
39371;DHT22;25099;51.946;4.838;2023-02-15T05:38:32;5.40;99.90
39371;DHT22;25099;51.946;4.838;2023-02-15T05:41:08;5.40;99.90
39371;DHT22;25099;51.946;4.838;2023-02-15T05:43:34;6.00;99.90
39371;DHT22;25099;51.946;4.838;2023-02-15T05:46:01;6.10;99.90
39371;DHT22;25099;51.946;4.838;2023-02-15T05:48:27;6.20;99.90
39371;DHT22;25099;51.946;4.838;2023-02-15T05:51:11;6.20;99.90
39371;DHT22;25099;51.946;4.838;2023-02-15T05:53:39;6.10;99.90
39371;DHT22;25099;51.946;4.838;2023-02-15T05:56:06;5.30;99.90
39371;DHT22;25099;51.946;4.838;2023-02-15T05:58:37;6.00;99.90
39371;DHT22;25099;51.946;4.838;2023-02-15T06:01:11;5.10;99.90
39371;DHT22;25099;51.946;4.838;2023-02-15T06:03:37;5.90;99.90
39371;DHT22;25099;51.946;4.838;2023-02-15T06:06:03;5.70;99.90
39371;DHT22;25099;51.946;4.838;2023-02-15T06:08:30;6.20;99.90
39371;DHT22;25099;51.946;4.838;2023-02-15T06:10:56;5.10;99.90
39371;DHT22;25099;51.946;4.838;2023-02-15T06:13:21;6.20;99.90
39371;DHT22;25099;51.946;4.838;2023-02-15T06:15:47;5.10;99.90
39371;DHT22;25099;51.946;4.838;2023-02-15T06:18:13;5.10;99.90
39371;DHT22;25099;51.946;4.838;2023-02-15T06:20:38;5.70;99.90
39371;DHT22;25099;51.946;4.838;2023-02-15T06:23:04;6.00;99.90
39371;DHT22;25099;51.946;4.838;2023-02-15T06:25:29;5.90;99.90
39371;DHT22;25099;51.946;4.838;2023-02-15T06:28:00;6.40;99.90
39371;DHT22;25099;51.946;4.838;2023-02-15T06:30:26;5.10;99.90
39371;DHT22;25099;51.946;4.838;2023-02-15T06:32:52;4.80;99.90
39371;DHT22;25099;51.946;4.838;2023-02-15T06:35:18;5.60;99.90
39371;DHT22;25099;51.946;4.838;2023-02-15T06:37:45;5.60;99.90
39371;DHT22;25099;51.946;4.838;2023-02-15T06:40:12;5.80;99.90
39371;DHT22;25099;51.946;4.838;2023-02-15T06:42:41;5.00;99.90
39371;DHT22;25099;51.946;4.838;2023-02-15T06:45:13;5.90;99.90
39371;DHT22;25099;51.946;4.838;2023-02-15T06:47:41;4.90;99.90
39371;DHT22;25099;51.946;4.838;2023-02-15T06:50:07;5.60;99.90
39371;DHT22;25099;51.946;4.838;2023-02-15T06:52:33;5.00;99.90
39371;DHT22;25099;51.946;4.838;2023-02-15T06:55:08;6.00;99.90
39371;DHT22;25099;51.946;4.838;2023-02-15T06:57:34;5.60;99.90
39371;DHT22;25099;51.946;4.838;2023-02-15T06:59:59;5.60;99.90
39371;DHT22;25099;51.946;4.838;2023-02-15T07:02:25;5.00;99.90
39371;DHT22;25099;51.946;4.838;2023-02-15T07:05:12;6.00;99.90
39371;DHT22;25099;51.946;4.838;2023-02-15T07:07:37;4.90;99.90
39371;DHT22;25099;51.946;4.838;2023-02-15T07:10:27;5.90;99.90
39371;DHT22;25099;51.946;4.838;2023-02-15T07:13:01;4.80;99.90
39371;DHT22;25099;51.946;4.838;2023-02-15T07:15:38;5.60;99.90
39371;DHT22;25099;51.946;4.838;2023-02-15T07:18:04;5.60;99.90
39371;DHT22;25099;51.946;4.838;2023-02-15T07:20:30;5.10;99.90
39371;DHT22;25099;51.946;4.838;2023-02-15T07:22:56;5.80;99.90
39371;DHT22;25099;51.946;4.838;2023-02-15T07:25:24;4.90;99.90
39371;DHT22;25099;51.946;4.838;2023-02-15T07:27:59;4.70;99.90
39371;DHT22;25099;51.946;4.838;2023-02-15T07:30:25;4.90;99.90
39371;DHT22;25099;51.946;4.838;2023-02-15T07:33:06;5.60;99.90
39371;DHT22;25099;51.946;4.838;2023-02-15T07:36:04;5.00;99.90
39371;DHT22;25099;51.946;4.838;2023-02-15T07:38:35;4.90;99.90
39371;DHT22;25099;51.946;4.838;2023-02-15T07:41:02;5.90;99.90
39371;DHT22;25099;51.946;4.838;2023-02-15T07:43:39;5.50;99.90
39371;DHT22;25099;51.946;4.838;2023-02-15T07:46:08;4.60;99.90
39371;DHT22;25099;51.946;4.838;2023-02-15T07:48:41;4.70;99.90
39371;DHT22;25099;51.946;4.838;2023-02-15T07:51:08;5.40;99.90
39371;DHT22;25099;51.946;4.838;2023-02-15T07:53:35;4.90;99.90
39371;DHT22;25099;51.946;4.838;2023-02-15T07:56:03;5.30;99.90
39371;DHT22;25099;51.946;4.838;2023-02-15T07:58:44;4.90;99.90
39371;DHT22;25099;51.946;4.838;2023-02-15T08:01:17;4.90;99.90
39371;DHT22;25099;51.946;4.838;2023-02-15T08:03:43;5.20;99.90
39371;DHT22;25099;51.946;4.838;2023-02-15T08:06:08;4.90;99.90
39371;DHT22;25099;51.946;4.838;2023-02-15T08:08:36;5.80;99.90
39371;DHT22;25099;51.946;4.838;2023-02-15T08:13:31;5.00;99.90
39371;DHT22;25099;51.946;4.838;2023-02-15T08:16:02;6.30;99.90
39371;DHT22;25099;51.946;4.838;2023-02-15T08:18:37;4.90;99.90
39371;DHT22;25099;51.946;4.838;2023-02-15T08:21:02;5.60;99.90
39371;DHT22;25099;51.946;4.838;2023-02-15T08:23:45;5.20;99.90
39371;DHT22;25099;51.946;4.838;2023-02-15T08:26:11;5.00;99.90
39371;DHT22;25099;51.946;4.838;2023-02-15T08:28:36;5.70;99.90
39371;DHT22;25099;51.946;4.838;2023-02-15T08:31:19;5.20;99.90
39371;DHT22;25099;51.946;4.838;2023-02-15T08:33:46;4.60;99.90
39371;DHT22;25099;51.946;4.838;2023-02-15T08:36:15;5.10;99.90
39371;DHT22;25099;51.946;4.838;2023-02-15T08:38:42;5.10;99.90
39371;DHT22;25099;51.946;4.838;2023-02-15T08:41:11;5.20;99.90
39371;DHT22;25099;51.946;4.838;2023-02-15T08:43:37;5.20;99.90
39371;DHT22;25099;51.946;4.838;2023-02-15T08:46:07;5.20;99.90
39371;DHT22;25099;51.946;4.838;2023-02-15T08:48:35;5.30;99.90
39371;DHT22;25099;51.946;4.838;2023-02-15T08:51:08;5.30;99.90
39371;DHT22;25099;51.946;4.838;2023-02-15T08:53:38;5.30;99.90
39371;DHT22;25099;51.946;4.838;2023-02-15T08:56:04;6.30;99.90
39371;DHT22;25099;51.946;4.838;2023-02-15T08:58:30;5.30;99.90
39371;DHT22;25099;51.946;4.838;2023-02-15T09:00:56;6.00;99.90
39371;DHT22;25099;51.946;4.838;2023-02-15T09:03:22;5.30;99.90
39371;DHT22;25099;51.946;4.838;2023-02-15T09:05:48;6.60;99.90
39371;DHT22;25099;51.946;4.838;2023-02-15T09:08:14;5.40;99.90
39371;DHT22;25099;51.946;4.838;2023-02-15T09:10:40;5.30;99.90
39371;DHT22;25099;51.946;4.838;2023-02-15T09:13:06;5.40;99.90
39371;DHT22;25099;51.946;4.838;2023-02-15T09:15:35;6.20;99.90
39371;DHT22;25099;51.946;4.838;2023-02-15T09:18:00;5.50;99.90
39371;DHT22;25099;51.946;4.838;2023-02-15T09:20:31;6.20;99.90
39371;DHT22;25099;51.946;4.838;2023-02-15T09:22:57;5.60;99.90
39371;DHT22;25099;51.946;4.838;2023-02-15T09:25:22;6.50;99.90
39371;DHT22;25099;51.946;4.838;2023-02-15T09:27:48;5.70;99.90
39371;DHT22;25099;51.946;4.838;2023-02-15T09:30:13;6.80;99.90
39371;DHT22;25099;51.946;4.838;2023-02-15T09:32:39;5.80;99.90
39371;DHT22;25099;51.946;4.838;2023-02-15T09:35:05;5.80;99.90
39371;DHT22;25099;51.946;4.838;2023-02-15T09:37:31;5.80;99.90
39371;DHT22;25099;51.946;4.838;2023-02-15T09:39:57;5.80;99.90
39371;DHT22;25099;51.946;4.838;2023-02-15T09:48:14;6.00;99.90
39371;DHT22;25099;51.946;4.838;2023-02-15T09:50:57;6.00;99.90
39371;DHT22;25099;51.946;4.838;2023-02-15T09:56:42;6.80;99.90
39371;DHT22;25099;51.946;4.838;2023-02-15T10:04:54;6.40;99.90
39371;DHT22;25099;51.946;4.838;2023-02-15T10:10:09;6.50;99.90
39371;DHT22;25099;51.946;4.838;2023-02-15T10:15:37;6.70;99.90
39371;DHT22;25099;51.946;4.838;2023-02-15T10:18:05;6.70;99.90
39371;DHT22;25099;51.946;4.838;2023-02-15T10:20:54;6.80;99.90
39371;DHT22;25099;51.946;4.838;2023-02-15T10:29:36;7.00;99.90
39371;DHT22;25099;51.946;4.838;2023-02-15T10:35:07;7.10;99.90
39371;DHT22;25099;51.946;4.838;2023-02-15T10:37:42;7.20;99.90
39371;DHT22;25099;51.946;4.838;2023-02-15T10:43:13;8.20;99.90
39371;DHT22;25099;51.946;4.838;2023-02-15T10:45:58;7.40;99.90
39371;DHT22;25099;51.946;4.838;2023-02-15T10:48:51;7.50;99.90
39371;DHT22;25099;51.946;4.838;2023-02-15T10:51:38;7.50;99.90
39371;DHT22;25099;51.946;4.838;2023-02-15T11:07:44;7.80;99.90
39371;DHT22;25099;51.946;4.838;2023-02-15T11:10:29;8.50;99.90
39371;DHT22;25099;51.946;4.838;2023-02-15T11:12:56;7.80;99.90
39371;DHT22;25099;51.946;4.838;2023-02-15T11:15:36;8.50;99.90
39371;DHT22;25099;51.946;4.838;2023-02-15T11:21:24;8.00;99.90
39371;DHT22;25099;51.946;4.838;2023-02-15T11:23:24;8.10;99.90
39371;DHT22;25099;51.946;4.838;2023-02-15T11:26:15;8.20;99.90
39371;DHT22;25099;51.946;4.838;2023-02-15T11:28:52;9.20;99.90
39371;DHT22;25099;51.946;4.838;2023-02-15T11:31:22;8.20;99.90
39371;DHT22;25099;51.946;4.838;2023-02-15T11:33:58;8.90;99.90
39371;DHT22;25099;51.946;4.838;2023-02-15T11:36:28;8.40;99.90
39371;DHT22;25099;51.946;4.838;2023-02-15T11:39:14;9.40;99.90
39371;DHT22;25099;51.946;4.838;2023-02-15T11:41:45;8.80;99.90
39371;DHT22;25099;51.946;4.838;2023-02-15T11:44:15;8.60;99.90
39371;DHT22;25099;51.946;4.838;2023-02-15T11:46:43;8.60;99.90
39371;DHT22;25099;51.946;4.838;2023-02-15T11:49:27;9.50;99.90
39371;DHT22;25099;51.946;4.838;2023-02-15T11:51:55;8.60;99.90
39371;DHT22;25099;51.946;4.838;2023-02-15T11:54:27;9.70;99.90
39371;DHT22;25099;51.946;4.838;2023-02-15T11:56:55;8.90;99.90
39371;DHT22;25099;51.946;4.838;2023-02-15T11:59:40;9.30;99.90
39371;DHT22;25099;51.946;4.838;2023-02-15T12:02:18;9.40;99.90
39371;DHT22;25099;51.946;4.838;2023-02-15T12:04:50;9.00;99.90
39371;DHT22;25099;51.946;4.838;2023-02-15T12:08:03;9.10;99.90
39371;DHT22;25099;51.946;4.838;2023-02-15T12:10:19;9.60;99.90
39371;DHT22;25099;51.946;4.838;2023-02-15T12:12:47;9.20;99.90
39371;DHT22;25099;51.946;4.838;2023-02-15T12:15:13;9.30;99.90
39371;DHT22;25099;51.946;4.838;2023-02-15T12:17:51;10.10;99.90
39371;DHT22;25099;51.946;4.838;2023-02-15T12:25:36;10.20;99.90
39371;DHT22;25099;51.946;4.838;2023-02-15T12:28:05;9.50;99.90
39371;DHT22;25099;51.946;4.838;2023-02-15T12:30:42;10.10;99.90
39371;DHT22;25099;51.946;4.838;2023-02-15T12:36:18;9.70;99.90
39371;DHT22;25099;51.946;4.838;2023-02-15T12:39:03;9.70;99.90
39371;DHT22;25099;51.946;4.838;2023-02-15T12:41:29;9.70;99.90
39371;DHT22;25099;51.946;4.838;2023-02-15T12:44:18;9.80;99.90
39371;DHT22;25099;51.946;4.838;2023-02-15T12:47:04;9.80;99.90
39371;DHT22;25099;51.946;4.838;2023-02-15T12:49:34;9.80;99.90
39371;DHT22;25099;51.946;4.838;2023-02-15T12:52:24;10.60;99.90
39371;DHT22;25099;51.946;4.838;2023-02-15T12:54:50;9.90;99.90
39371;DHT22;25099;51.946;4.838;2023-02-15T12:57:31;9.90;99.90
39371;DHT22;25099;51.946;4.838;2023-02-15T13:00:00;9.90;99.90
39371;DHT22;25099;51.946;4.838;2023-02-15T13:05:18;9.90;99.90
39371;DHT22;25099;51.946;4.838;2023-02-15T13:07:51;10.20;99.90
39371;DHT22;25099;51.946;4.838;2023-02-15T13:10:36;10.90;99.90
39371;DHT22;25099;51.946;4.838;2023-02-15T13:13:17;10.00;99.90
39371;DHT22;25099;51.946;4.838;2023-02-15T13:15:46;10.00;99.90
39371;DHT22;25099;51.946;4.838;2023-02-15T13:18:33;10.10;99.90
39371;DHT22;25099;51.946;4.838;2023-02-15T13:21:26;10.50;99.90
39371;DHT22;25099;51.946;4.838;2023-02-15T13:23:57;10.10;99.90
39371;DHT22;25099;51.946;4.838;2023-02-15T13:26:28;10.90;99.90
39371;DHT22;25099;51.946;4.838;2023-02-15T13:28:59;11.60;99.90
39371;DHT22;25099;51.946;4.838;2023-02-15T13:31:28;11.00;99.90
39371;DHT22;25099;51.946;4.838;2023-02-15T13:34:12;10.40;99.90
39371;DHT22;25099;51.946;4.838;2023-02-15T13:39:56;10.30;99.90
39371;DHT22;25099;51.946;4.838;2023-02-15T13:42:35;10.40;99.90
39371;DHT22;25099;51.946;4.838;2023-02-15T13:48:22;10.30;99.90
39371;DHT22;25099;51.946;4.838;2023-02-15T13:51:14;10.00;99.90
39371;DHT22;25099;51.946;4.838;2023-02-15T13:53:56;11.60;99.90
39371;DHT22;25099;51.946;4.838;2023-02-15T14:02:22;10.00;99.90
39371;DHT22;25099;51.946;4.838;2023-02-15T14:08:04;10.30;99.90
39371;DHT22;25099;51.946;4.838;2023-02-15T14:16:20;10.30;99.90
39371;DHT22;25099;51.946;4.838;2023-02-15T14:19:20;10.60;99.90
39371;DHT22;25099;51.946;4.838;2023-02-15T14:22:00;10.30;99.90
39371;DHT22;25099;51.946;4.838;2023-02-15T14:30:21;10.40;99.90
39371;DHT22;25099;51.946;4.838;2023-02-15T14:32:52;10.40;99.90
39371;DHT22;25099;51.946;4.838;2023-02-15T14:35:21;10.70;99.90
39371;DHT22;25099;51.946;4.838;2023-02-15T14:38:32;10.70;99.90
39371;DHT22;25099;51.946;4.838;2023-02-15T14:41:13;9.70;99.90
39371;DHT22;25099;51.946;4.838;2023-02-15T14:49:10;10.50;99.90
39371;DHT22;25099;51.946;4.838;2023-02-15T14:54:08;11.30;99.90
39371;DHT22;25099;51.946;4.838;2023-02-15T14:56:34;11.10;99.90
39371;DHT22;25099;51.946;4.838;2023-02-15T14:59:20;10.50;99.90
39371;DHT22;25099;51.946;4.838;2023-02-15T15:04:40;10.40;99.90
39371;DHT22;25099;51.946;4.838;2023-02-15T15:07:21;10.50;99.90
39371;DHT22;25099;51.946;4.838;2023-02-15T15:12:47;10.50;99.90
39371;DHT22;25099;51.946;4.838;2023-02-15T15:15:34;10.40;99.90
39371;DHT22;25099;51.946;4.838;2023-02-15T15:18:42;11.00;99.90
39371;DHT22;25099;51.946;4.838;2023-02-15T15:20:59;10.90;99.90
39371;DHT22;25099;51.946;4.838;2023-02-15T15:23:45;11.20;99.90
39371;DHT22;25099;51.946;4.838;2023-02-15T15:26:31;11.00;99.90
39371;DHT22;25099;51.946;4.838;2023-02-15T15:29:06;11.20;99.90
39371;DHT22;25099;51.946;4.838;2023-02-15T15:31:50;11.20;99.90
39371;DHT22;25099;51.946;4.838;2023-02-15T15:48:46;10.30;99.90
39371;DHT22;25099;51.946;4.838;2023-02-15T15:51:29;11.10;99.90
39371;DHT22;25099;51.946;4.838;2023-02-15T15:53:57;10.70;99.90
39371;DHT22;25099;51.946;4.838;2023-02-15T15:56:26;11.00;99.90
39371;DHT22;25099;51.946;4.838;2023-02-15T15:59:05;11.00;99.90
39371;DHT22;25099;51.946;4.838;2023-02-15T16:01:36;10.90;99.90
39371;DHT22;25099;51.946;4.838;2023-02-15T16:04:03;10.20;99.90
39371;DHT22;25099;51.946;4.838;2023-02-15T16:06:36;10.70;99.90
39371;DHT22;25099;51.946;4.838;2023-02-15T16:09:23;10.10;99.90
39371;DHT22;25099;51.946;4.838;2023-02-15T16:11:51;10.70;99.90
39371;DHT22;25099;51.946;4.838;2023-02-15T16:14:27;10.90;99.90
39371;DHT22;25099;51.946;4.838;2023-02-15T16:16:57;10.10;99.90
39371;DHT22;25099;51.946;4.838;2023-02-15T16:19:44;10.30;99.90
39371;DHT22;25099;51.946;4.838;2023-02-15T16:22:21;10.00;99.90
39371;DHT22;25099;51.946;4.838;2023-02-15T16:27:42;9.90;99.90
39371;DHT22;25099;51.946;4.838;2023-02-15T16:30:24;10.60;99.90
39371;DHT22;25099;51.946;4.838;2023-02-15T16:32:54;9.90;99.90
39371;DHT22;25099;51.946;4.838;2023-02-15T16:35:22;9.80;99.90
39371;DHT22;25099;51.946;4.838;2023-02-15T16:37:48;10.40;99.90
39371;DHT22;25099;51.946;4.838;2023-02-15T16:40:43;11.00;99.90
39371;DHT22;25099;51.946;4.838;2023-02-15T16:43:26;9.80;99.90
39371;DHT22;25099;51.946;4.838;2023-02-15T16:46:03;10.50;99.90
39371;DHT22;25099;51.946;4.838;2023-02-15T16:48:31;9.70;99.90
39371;DHT22;25099;51.946;4.838;2023-02-15T16:50:57;9.70;99.90
39371;DHT22;25099;51.946;4.838;2023-02-15T16:53:26;9.70;99.90
39371;DHT22;25099;51.946;4.838;2023-02-15T16:55:58;10.30;99.90
39371;DHT22;25099;51.946;4.838;2023-02-15T16:58:44;10.30;99.90
39371;DHT22;25099;51.946;4.838;2023-02-15T17:01:13;9.70;99.90
39371;DHT22;25099;51.946;4.838;2023-02-15T17:03:40;10.10;99.90
39371;DHT22;25099;51.946;4.838;2023-02-15T17:06:25;9.60;99.90
39371;DHT22;25099;51.946;4.838;2023-02-15T17:08:52;10.10;99.90
39371;DHT22;25099;51.946;4.838;2023-02-15T17:11:41;10.20;99.90
39371;DHT22;25099;51.946;4.838;2023-02-15T17:16:47;9.50;99.90
39371;DHT22;25099;51.946;4.838;2023-02-15T17:19:23;10.00;99.90
39371;DHT22;25099;51.946;4.838;2023-02-15T17:22:14;9.40;99.90
39371;DHT22;25099;51.946;4.838;2023-02-15T17:24:43;9.50;99.90
39371;DHT22;25099;51.946;4.838;2023-02-15T17:27:20;9.80;99.90
39371;DHT22;25099;51.946;4.838;2023-02-15T17:30:00;9.40;99.90
39371;DHT22;25099;51.946;4.838;2023-02-15T17:32:29;10.00;99.90
39371;DHT22;25099;51.946;4.838;2023-02-15T17:34:59;9.70;99.90
39371;DHT22;25099;51.946;4.838;2023-02-15T17:40:14;9.30;99.90
39371;DHT22;25099;51.946;4.838;2023-02-15T17:42:40;9.30;99.90
39371;DHT22;25099;51.946;4.838;2023-02-15T17:45:05;10.10;99.90
39371;DHT22;25099;51.946;4.838;2023-02-15T17:47:31;9.20;99.90
39371;DHT22;25099;51.946;4.838;2023-02-15T17:49:57;9.60;99.90
39371;DHT22;25099;51.946;4.838;2023-02-15T17:52:29;10.00;99.90
39371;DHT22;25099;51.946;4.838;2023-02-15T17:54:58;9.50;99.90
39371;DHT22;25099;51.946;4.838;2023-02-15T17:57:59;9.70;99.90
39371;DHT22;25099;51.946;4.838;2023-02-15T18:00:25;9.80;99.90
39371;DHT22;25099;51.946;4.838;2023-02-15T18:03:10;10.20;99.90
39371;DHT22;25099;51.946;4.838;2023-02-15T18:05:56;9.20;99.90
39371;DHT22;25099;51.946;4.838;2023-02-15T18:08:40;9.60;99.90
39371;DHT22;25099;51.946;4.838;2023-02-15T18:11:34;9.20;99.90
39371;DHT22;25099;51.946;4.838;2023-02-15T18:14:07;9.10;99.90
39371;DHT22;25099;51.946;4.838;2023-02-15T18:16:36;9.20;99.90
39371;DHT22;25099;51.946;4.838;2023-02-15T18:19:04;10.60;99.90
39371;DHT22;25099;51.946;4.838;2023-02-15T18:21:31;9.20;99.90
39371;DHT22;25099;51.946;4.838;2023-02-15T18:23:58;10.20;99.90
39371;DHT22;25099;51.946;4.838;2023-02-15T18:26:27;9.20;99.90
39371;DHT22;25099;51.946;4.838;2023-02-15T18:28:53;10.10;99.90
39371;DHT22;25099;51.946;4.838;2023-02-15T18:31:20;9.10;99.90
39371;DHT22;25099;51.946;4.838;2023-02-15T18:33:49;9.70;99.90
39371;DHT22;25099;51.946;4.838;2023-02-15T18:36:42;9.10;99.90
39371;DHT22;25099;51.946;4.838;2023-02-15T18:39:42;9.10;99.90
39371;DHT22;25099;51.946;4.838;2023-02-15T18:44:48;9.40;99.90
39371;DHT22;25099;51.946;4.838;2023-02-15T18:47:13;9.00;99.90
39371;DHT22;25099;51.946;4.838;2023-02-15T18:49:39;9.80;99.90
39371;DHT22;25099;51.946;4.838;2023-02-15T18:52:04;9.00;99.90
39371;DHT22;25099;51.946;4.838;2023-02-15T18:54:30;9.60;99.90
39371;DHT22;25099;51.946;4.838;2023-02-15T18:56:57;9.20;99.90